Share

Vrsac, Serbia

Vrsac (LYVR) Elev 279 ft | 45.15 °N, 21.31 °E | Change Station

Current weather conditions updated 30 minutes ago

Scattered Clouds
Scattered Clouds
57 °F
Feels Like 57 °F
N
25
Wind Variable Wind from SE
Sunrise 5:40 AM
Sunset 7:27 PM
Moon Waning Gibbous

Today is forecast to be Warmer than yesterday. Showers possible tonight.

Pressure 29.86 in
Visibility 6.2 miles
Clouds Scattered Clouds 4000 ft
Dew Point 48 °F
Humidity 72%
Rainfall 0.00 in
Snow Depth Not available.
UV 0 out of 16
Pollen Not available.
Air Quality Not available.
Flu Activity Not available.
METAR LYVR 202300Z 13022KT 9999 SCT040 14/09 Q1011 NOSIG

More Conditions Fewer Conditions

Pressure 29.86 in
Visibility 6.2 miles
Clouds Scattered Clouds 4000 ft
Dew Point 48 °F
Humidity 72%
Rainfall 0.00 in
Snow Depth Not available.
UV 0 out of 16
Pollen Not available.
Air Quality Not available.
Flu Activity Not available.
METAR LYVR 202300Z 13022KT 9999 SCT040 14/09 Q1011 NOSIG

More Conditions Fewer Conditions

10-Day Weather Forecast

Almanac

Astronomy

Apr. 21, 2014 Rise Set
Actual Time 5:40 AM CEST 7:27 PM CEST
Civil Twilight 5:08 AM CEST 7:59 PM CEST
Nautical Twilight 4:30 AM CEST 8:37 PM CEST
Astronomical Twilight 3:49 AM CEST 9:19 PM CEST
Moon 12:47 AM CEST (4/21) 10:41 AM CEST (4/21)
Length of Visible Light 14h 50m
Length of Day
13h 47m
Tomorrow will be 2m 56s longer.
Waning Gibbous, 65% of the Moon is Illuminated
Apr 20
Waning Gibbous
Apr 22
Last Quarter
Apr 29
New
May 6
First Quarter
May 14
Full

Community

  • Easter Dance
    Easter Dance
  • spring skiing mount Baker WA
    spring skiing mount Baker WA
  • Morning Sun
    Morning Sun
  • Happy Easter
    Happy Easter
  • after rain
    after rain

WunderPhotos

Upload Photos

1,703,436 photos uploaded!

WunderBlogs® & News

Nearby

Snow Depth

Not available.

Coastal Water Temperatures

Place Temperature
No Stations Reporting

Earthquake Activity

City Distance Mag. Time & Date
No recent earthquake activity has been reported nearby.
Minimum magnitude displayed is 2.5.

Nearby Weather Stations

Station Location Temp. Dew Point Humidity Wind Precip. Elev Updated Type
Vrsac 57.2 °F 48 °F 71% ESE  at  9.0 mph 0.00 in / hr 295 ft 1:15 AM CEST Normal
Tormac 52.0 °F 49 °F 89% SE  at  5.0 mph 0.00 in / hr 405 ft 2:28 AM EEST Normal

Show More Stations Show Fewer Stations

What do you think?

We're not finished. Please let us know what you like, what you don't like, and what you are still missing.